sensor_id;sensor_type;location;lat;lon;timestamp;pressure;altitude;pressure_sealevel;temperature;humidity
12949;BME280;6539;49.476;8.484;2023-04-09T00:00:15;101332.13;;;13.27;47.79
12949;BME280;6539;49.476;8.484;2023-04-09T00:02:45;101324.25;;;13.29;47.38
12949;BME280;6539;49.476;8.484;2023-04-09T00:05:13;101324.28;;;13.22;47.78
12949;BME280;6539;49.476;8.484;2023-04-09T00:07:39;101331.41;;;13.20;47.79
12949;BME280;6539;49.476;8.484;2023-04-09T00:10:05;101316.44;;;13.17;47.63
12949;BME280;6539;49.476;8.484;2023-04-09T00:12:34;101319.56;;;13.16;47.83
12949;BME280;6539;49.476;8.484;2023-04-09T00:15:02;101317.19;;;13.18;47.81
12949;BME280;6539;49.476;8.484;2023-04-09T00:17:28;101314.88;;;13.09;47.89
12949;BME280;6539;49.476;8.484;2023-04-09T00:19:53;101310.56;;;13.05;48.29
12949;BME280;6539;49.476;8.484;2023-04-09T00:22:19;101307.81;;;13.05;48.46
12949;BME280;6539;49.476;8.484;2023-04-09T00:24:45;101310.13;;;13.02;48.12
12949;BME280;6539;49.476;8.484;2023-04-09T00:27:13;101306.22;;;13.00;48.23
12949;BME280;6539;49.476;8.484;2023-04-09T00:29:41;101305.44;;;12.96;48.43
12949;BME280;6539;49.476;8.484;2023-04-09T00:32:09;101305.44;;;12.96;48.37
12949;BME280;6539;49.476;8.484;2023-04-09T00:34:35;101306.25;;;12.93;48.58
12949;BME280;6539;49.476;8.484;2023-04-09T00:37:01;101311.75;;;12.93;48.80
12949;BME280;6539;49.476;8.484;2023-04-09T00:39:27;101307.81;;;12.94;48.66
12949;BME280;6539;49.476;8.484;2023-04-09T00:42:00;101299.13;;;12.99;48.78
12949;BME280;6539;49.476;8.484;2023-04-09T00:44:31;101301.50;;;12.97;48.60
12949;BME280;6539;49.476;8.484;2023-04-09T00:46:57;101301.53;;;12.93;48.78
12949;BME280;6539;49.476;8.484;2023-04-09T00:49:24;101302.31;;;12.90;48.80
12949;BME280;6539;49.476;8.484;2023-04-09T00:51:51;101315.72;;;12.85;49.08
12949;BME280;6539;49.476;8.484;2023-04-09T00:54:22;101310.22;;;12.78;49.18
12949;BME280;6539;49.476;8.484;2023-04-09T00:56:51;101313.38;;;12.80;49.29
12949;BME280;6539;49.476;8.484;2023-04-09T00:59:17;101309.03;;;12.79;49.55
12949;BME280;6539;49.476;8.484;2023-04-09T01:01:43;101311.38;;;12.87;49.89
12949;BME280;6539;49.476;8.484;2023-04-09T01:04:11;101315.31;;;12.86;49.08
12949;BME280;6539;49.476;8.484;2023-04-09T01:15:21;101309.03;;;12.75;49.97
12949;BME280;6539;49.476;8.484;2023-04-09T01:17:58;101306.28;;;12.75;49.57
12949;BME280;6539;49.476;8.484;2023-04-09T01:20:41;101308.63;;;12.77;50.52
12949;BME280;6539;49.476;8.484;2023-04-09T01:23:41;101303.16;;;12.70;50.02
12949;BME280;6539;49.476;8.484;2023-04-09T01:29:06;101297.66;;;12.66;50.40
12949;BME280;6539;49.476;8.484;2023-04-09T01:31:36;101300.41;;;12.63;50.33
12949;BME280;6539;49.476;8.484;2023-04-09T01:34:05;101299.66;;;12.59;50.44
12949;BME280;6539;49.476;8.484;2023-04-09T01:36:34;101296.88;;;12.55;50.93
12949;BME280;6539;49.476;8.484;2023-04-09T01:39:05;101313.03;;;12.53;50.88
12949;BME280;6539;49.476;8.484;2023-04-09T01:41:33;101306.38;;;12.51;51.01
12949;BME280;6539;49.476;8.484;2023-04-09T01:44:02;101301.63;;;12.51;51.53
12949;BME280;6539;49.476;8.484;2023-04-09T01:46:29;101301.63;;;12.48;51.15
12949;BME280;6539;49.476;8.484;2023-04-09T01:48:56;101302.41;;;12.52;51.27
12949;BME280;6539;49.476;8.484;2023-04-09T01:51:22;101304.75;;;12.53;51.12
12949;BME280;6539;49.476;8.484;2023-04-09T01:53:53;101302.41;;;12.48;51.31
12949;BME280;6539;49.476;8.484;2023-04-09T01:56:19;101306.38;;;12.44;51.77
12949;BME280;6539;49.476;8.484;2023-04-09T01:58:45;101305.97;;;12.42;51.55
12949;BME280;6539;49.476;8.484;2023-04-09T02:01:44;101307.13;;;12.41;51.70
12949;BME280;6539;49.476;8.484;2023-04-09T02:04:35;101306.75;;;12.39;51.76
12949;BME280;6539;49.476;8.484;2023-04-09T02:07:44;101315.00;;;12.39;52.02
12949;BME280;6539;49.476;8.484;2023-04-09T02:10:14;101316.59;;;12.33;51.79
12949;BME280;6539;49.476;8.484;2023-04-09T02:12:48;101313.84;;;12.29;51.97
12949;BME280;6539;49.476;8.484;2023-04-09T02:15:14;101323.66;;;12.30;52.02
12949;BME280;6539;49.476;8.484;2023-04-09T02:17:43;101319.75;;;12.31;52.04
12949;BME280;6539;49.476;8.484;2023-04-09T02:20:16;101313.84;;;12.33;51.87
12949;BME280;6539;49.476;8.484;2023-04-09T02:22:45;101313.47;;;12.38;51.88
12949;BME280;6539;49.476;8.484;2023-04-09T02:25:14;101314.63;;;12.37;51.49
12949;BME280;6539;49.476;8.484;2023-04-09T02:27:42;101317.00;;;12.35;52.26
12949;BME280;6539;49.476;8.484;2023-04-09T02:30:08;101314.63;;;12.30;52.07
12949;BME280;6539;49.476;8.484;2023-04-09T02:32:34;101313.44;;;12.34;52.13
12949;BME280;6539;49.476;8.484;2023-04-09T02:35:00;101309.91;;;12.34;52.19
12949;BME280;6539;49.476;8.484;2023-04-09T02:37:27;101310.69;;;12.34;52.07
12949;BME280;6539;49.476;8.484;2023-04-09T02:39:53;101305.19;;;12.34;52.35
12949;BME280;6539;49.476;8.484;2023-04-09T02:42:19;101303.59;;;12.30;52.23
12949;BME280;6539;49.476;8.484;2023-04-09T02:44:47;101307.94;;;12.27;52.46
12949;BME280;6539;49.476;8.484;2023-04-09T02:47:13;101303.63;;;12.26;52.45
12949;BME280;6539;49.476;8.484;2023-04-09T02:49:38;101302.03;;;12.25;52.59
12949;BME280;6539;49.476;8.484;2023-04-09T02:52:04;101302.44;;;12.23;52.65
12949;BME280;6539;49.476;8.484;2023-04-09T02:54:32;101298.91;;;12.19;52.93
12949;BME280;6539;49.476;8.484;2023-04-09T02:57:01;101298.09;;;12.19;53.06
12949;BME280;6539;49.476;8.484;2023-04-09T02:59:29;101307.56;;;12.18;53.37
12949;BME280;6539;49.476;8.484;2023-04-09T03:01:54;101311.09;;;12.11;53.33
12949;BME280;6539;49.476;8.484;2023-04-09T03:04:20;101294.97;;;12.13;53.06
12949;BME280;6539;49.476;8.484;2023-04-09T03:06:46;101307.53;;;12.14;52.77
12949;BME280;6539;49.476;8.484;2023-04-09T03:09:16;101311.06;;;12.18;52.73
12949;BME280;6539;49.476;8.484;2023-04-09T03:11:48;101299.69;;;12.16;52.96
12949;BME280;6539;49.476;8.484;2023-04-09T03:14:16;101291.81;;;12.15;52.68
12949;BME280;6539;49.476;8.484;2023-04-09T03:16:42;101303.25;;;12.13;52.73
12949;BME280;6539;49.476;8.484;2023-04-09T03:19:10;101303.22;;;12.17;52.96
12949;BME280;6539;49.476;8.484;2023-04-09T03:21:38;101310.31;;;12.07;52.88
12949;BME280;6539;49.476;8.484;2023-04-09T03:24:04;101304.78;;;12.04;53.13
12949;BME280;6539;49.476;8.484;2023-04-09T03:26:32;101303.63;;;11.98;53.26
12949;BME280;6539;49.476;8.484;2023-04-09T03:29:04;101306.38;;;11.98;52.85
12949;BME280;6539;49.476;8.484;2023-04-09T03:31:33;101300.47;;;11.96;53.15
12949;BME280;6539;49.476;8.484;2023-04-09T03:34:03;101301.25;;;11.89;52.90
12949;BME280;6539;49.476;8.484;2023-04-09T03:36:31;101301.25;;;11.89;53.07
12949;BME280;6539;49.476;8.484;2023-04-09T03:38:59;101294.59;;;11.90;53.01
12949;BME280;6539;49.476;8.484;2023-04-09T03:41:27;101299.28;;;11.86;53.51
12949;BME280;6539;49.476;8.484;2023-04-09T03:43:52;101294.56;;;11.87;53.16
12949;BME280;6539;49.476;8.484;2023-04-09T03:46:18;101299.28;;;11.86;53.23
12949;BME280;6539;49.476;8.484;2023-04-09T03:48:44;101294.97;;;11.89;53.27
12949;BME280;6539;49.476;8.484;2023-04-09T03:51:11;101290.22;;;11.82;53.24
12949;BME280;6539;49.476;8.484;2023-04-09T03:53:38;101295.75;;;11.75;53.39
12949;BME280;6539;49.476;8.484;2023-04-09T03:56:04;101292.97;;;11.72;53.35
12949;BME280;6539;49.476;8.484;2023-04-09T03:58:32;101297.69;;;11.71;53.71
12949;BME280;6539;49.476;8.484;2023-04-09T04:01:01;101302.78;;;11.69;53.69
12949;BME280;6539;49.476;8.484;2023-04-09T04:03:27;101296.47;;;11.65;53.54
12949;BME280;6539;49.476;8.484;2023-04-09T04:05:53;101300.78;;;11.59;54.31
12949;BME280;6539;49.476;8.484;2023-04-09T04:08:19;101291.38;;;11.60;53.87
12949;BME280;6539;49.476;8.484;2023-04-09T04:10:45;101298.44;;;11.61;54.14
12949;BME280;6539;49.476;8.484;2023-04-09T04:13:11;101296.84;;;11.57;54.11
12949;BME280;6539;49.476;8.484;2023-04-09T04:15:41;101298.00;;;11.52;54.87
12949;BME280;6539;49.476;8.484;2023-04-09T04:18:08;101297.25;;;11.55;54.36
12949;BME280;6539;49.476;8.484;2023-04-09T04:20:35;101297.25;;;11.55;54.66
12949;BME280;6539;49.476;8.484;2023-04-09T04:23:04;101293.69;;;11.58;54.51
12949;BME280;6539;49.476;8.484;2023-04-09T04:25:33;101293.31;;;11.63;54.87
12949;BME280;6539;49.476;8.484;2023-04-09T04:28:00;101297.63;;;11.61;54.57
12949;BME280;6539;49.476;8.484;2023-04-09T04:30:31;101292.13;;;11.57;54.29
12949;BME280;6539;49.476;8.484;2023-04-09T04:32:56;101301.19;;;11.58;54.72
12949;BME280;6539;49.476;8.484;2023-04-09T04:35:27;101307.06;;;11.56;55.00
12949;BME280;6539;49.476;8.484;2023-04-09T04:37:55;101299.19;;;11.58;55.25
12949;BME280;6539;49.476;8.484;2023-04-09T04:40:21;101305.88;;;11.50;55.02
12949;BME280;6539;49.476;8.484;2023-04-09T04:42:51;101312.94;;;11.44;55.39
12949;BME280;6539;49.476;8.484;2023-04-09T04:45:17;101311.75;;;11.45;55.19
12949;BME280;6539;49.476;8.484;2023-04-09T04:47:45;101308.63;;;11.46;55.49
12949;BME280;6539;49.476;8.484;2023-04-09T04:50:11;101305.06;;;11.46;55.31
12949;BME280;6539;49.476;8.484;2023-04-09T04:52:43;101314.13;;;11.46;55.17
12949;BME280;6539;49.476;8.484;2023-04-09T04:55:12;101310.94;;;11.41;55.49
12949;BME280;6539;49.476;8.484;2023-04-09T04:57:40;101305.03;;;11.39;55.54
12949;BME280;6539;49.476;8.484;2023-04-09T05:00:06;101319.19;;;11.41;55.51
12949;BME280;6539;49.476;8.484;2023-04-09T05:02:33;101308.19;;;11.41;55.69
12949;BME280;6539;49.476;8.484;2023-04-09T05:04:58;101317.63;;;11.40;55.66
12949;BME280;6539;49.476;8.484;2023-04-09T05:07:24;101318.00;;;11.35;55.94
12949;BME280;6539;49.476;8.484;2023-04-09T05:09:55;101318.00;;;11.35;55.74
12949;BME280;6539;49.476;8.484;2023-04-09T05:12:25;101317.63;;;11.40;55.88
12949;BME280;6539;49.476;8.484;2023-04-09T05:14:51;101317.63;;;11.40;55.91
12949;BME280;6539;49.476;8.484;2023-04-09T05:17:19;101314.84;;;11.36;55.82
12949;BME280;6539;49.476;8.484;2023-04-09T05:19:52;101322.72;;;11.38;55.87
12949;BME280;6539;49.476;8.484;2023-04-09T05:22:24;101317.63;;;11.40;55.81
12949;BME280;6539;49.476;8.484;2023-04-09T05:24:52;101315.69;;;11.44;55.79
12949;BME280;6539;49.476;8.484;2023-04-09T05:27:18;101323.91;;;11.47;55.92
12949;BME280;6539;49.476;8.484;2023-04-09T05:29:45;101321.97;;;11.48;55.79
12949;BME280;6539;49.476;8.484;2023-04-09T05:32:11;101321.56;;;11.46;55.69
12949;BME280;6539;49.476;8.484;2023-04-09T05:34:36;101318.06;;;11.49;55.91
12949;BME280;6539;49.476;8.484;2023-04-09T05:37:02;101321.19;;;11.51;56.04
12949;BME280;6539;49.476;8.484;2023-04-09T05:39:28;101321.19;;;11.55;55.84
12949;BME280;6539;49.476;8.484;2023-04-09T05:41:56;101327.47;;;11.51;55.64
12949;BME280;6539;49.476;8.484;2023-04-09T05:44:24;101327.09;;;11.53;55.49
12949;BME280;6539;49.476;8.484;2023-04-09T05:46:52;101318.84;;;11.57;55.95
12949;BME280;6539;49.476;8.484;2023-04-09T05:49:18;101319.63;;;11.57;56.02
12949;BME280;6539;49.476;8.484;2023-04-09T05:51:44;101323.97;;;11.62;55.68
12949;BME280;6539;49.476;8.484;2023-04-09T05:54:12;101328.69;;;11.65;55.70
12949;BME280;6539;49.476;8.484;2023-04-09T05:56:38;101327.53;;;11.66;55.84
12949;BME280;6539;49.476;8.484;2023-04-09T05:59:03;101327.94;;;11.71;55.26
12949;BME280;6539;49.476;8.484;2023-04-09T06:01:29;101332.69;;;11.74;54.90
12949;BME280;6539;49.476;8.484;2023-04-09T06:03:57;101331.91;;;11.81;55.33
12949;BME280;6539;49.476;8.484;2023-04-09T06:06:25;101332.28;;;11.86;54.69
12949;BME280;6539;49.476;8.484;2023-04-09T06:08:51;101337.03;;;11.89;54.86
12949;BME280;6539;49.476;8.484;2023-04-09T06:11:21;101333.09;;;11.90;54.88
12949;BME280;6539;49.476;8.484;2023-04-09T06:13:47;101343.31;;;11.93;54.72
12949;BME280;6539;49.476;8.484;2023-04-09T06:16:13;101337.81;;;11.90;54.91
12949;BME280;6539;49.476;8.484;2023-04-09T06:18:39;101346.06;;;11.93;55.10
12949;BME280;6539;49.476;8.484;2023-04-09T06:21:08;101338.59;;;11.94;54.65
12949;BME280;6539;49.476;8.484;2023-04-09T06:23:37;101346.84;;;11.94;54.87
12949;BME280;6539;49.476;8.484;2023-04-09T06:26:03;101347.25;;;11.96;55.22
12949;BME280;6539;49.476;8.484;2023-04-09T06:28:28;101345.28;;;11.96;54.71
12949;BME280;6539;49.476;8.484;2023-04-09T06:30:54;101345.66;;;11.91;54.84
12949;BME280;6539;49.476;8.484;2023-04-09T06:33:25;101351.19;;;12.02;54.42
12949;BME280;6539;49.476;8.484;2023-04-09T06:35:51;101356.69;;;11.98;54.73
12949;BME280;6539;49.476;8.484;2023-04-09T06:38:16;101348.81;;;12.04;54.41
12949;BME280;6539;49.476;8.484;2023-04-09T06:40:45;101355.13;;;12.11;54.17
12949;BME280;6539;49.476;8.484;2023-04-09T06:43:11;101352.75;;;12.10;54.24
12949;BME280;6539;49.476;8.484;2023-04-09T06:45:36;101348.06;;;12.17;54.21
12949;BME280;6539;49.476;8.484;2023-04-09T06:48:07;101351.22;;;12.48;53.42
12949;BME280;6539;49.476;8.484;2023-04-09T06:50:35;101356.22;;;13.09;52.07
12949;BME280;6539;49.476;8.484;2023-04-09T06:53:05;101357.25;;;13.54;50.19
12949;BME280;6539;49.476;8.484;2023-04-09T06:55:31;101356.41;;;13.57;50.18
12949;BME280;6539;49.476;8.484;2023-04-09T06:57:57;101357.22;;;13.57;49.69
12949;BME280;6539;49.476;8.484;2023-04-09T07:00:23;101350.94;;;13.53;50.01
12949;BME280;6539;49.476;8.484;2023-04-09T07:02:51;101357.63;;;13.52;50.14
12949;BME280;6539;49.476;8.484;2023-04-09T07:05:19;101345.00;;;13.58;49.70
12949;BME280;6539;49.476;8.484;2023-04-09T07:07:45;101352.50;;;13.58;49.74
12949;BME280;6539;49.476;8.484;2023-04-09T07:10:11;101351.59;;;13.71;49.93
12949;BME280;6539;49.476;8.484;2023-04-09T07:12:37;101346.34;;;13.91;49.26
12949;BME280;6539;49.476;8.484;2023-04-09T07:15:05;101348.28;;;14.01;48.75
12949;BME280;6539;49.476;8.484;2023-04-09T07:17:32;101347.31;;;14.22;48.29
12949;BME280;6539;49.476;8.484;2023-04-09T07:19:58;101350.50;;;14.20;48.22
12949;BME280;6539;49.476;8.484;2023-04-09T07:22:26;101353.63;;;14.22;47.96
12949;BME280;6539;49.476;8.484;2023-04-09T07:24:57;101348.47;;;14.31;47.78
12949;BME280;6539;49.476;8.484;2023-04-09T07:27:28;101352.78;;;14.32;47.88
12949;BME280;6539;49.476;8.484;2023-04-09T07:29:58;101354.13;;;14.58;47.70
12949;BME280;6539;49.476;8.484;2023-04-09T07:32:25;101354.81;;;15.44;46.10
12949;BME280;6539;49.476;8.484;2023-04-09T07:34:55;101351.28;;;16.23;43.53
12949;BME280;6539;49.476;8.484;2023-04-09T07:37:26;101353.25;;;16.92;42.97
12949;BME280;6539;49.476;8.484;2023-04-09T07:39:52;101354.56;;;17.27;41.19
12949;BME280;6539;49.476;8.484;2023-04-09T07:42:18;101340.84;;;17.75;40.25
12949;BME280;6539;49.476;8.484;2023-04-09T07:44:44;101350.25;;;17.81;40.28
12949;BME280;6539;49.476;8.484;2023-04-09T07:47:09;101357.16;;;17.73;39.63
12949;BME280;6539;49.476;8.484;2023-04-09T07:49:38;101355.22;;;18.06;39.38
12949;BME280;6539;49.476;8.484;2023-04-09T07:52:06;101356.63;;;18.62;37.85
12949;BME280;6539;49.476;8.484;2023-04-09T07:54:34;101361.06;;;19.17;36.55
12949;BME280;6539;49.476;8.484;2023-04-09T07:57:00;101370.03;;;19.25;36.41
12949;BME280;6539;49.476;8.484;2023-04-09T07:59:26;101369.94;;;18.99;36.95
12949;BME280;6539;49.476;8.484;2023-04-09T08:01:52;101366.94;;;18.78;37.25
12949;BME280;6539;49.476;8.484;2023-04-09T08:04:20;101362.59;;;18.12;38.06
12949;BME280;6539;49.476;8.484;2023-04-09T08:06:46;101368.56;;;17.79;39.07
12949;BME280;6539;49.476;8.484;2023-04-09T08:09:16;101368.50;;;17.63;39.18
12949;BME280;6539;49.476;8.484;2023-04-09T08:11:43;101367.56;;;17.69;39.42
12949;BME280;6539;49.476;8.484;2023-04-09T08:14:15;101367.91;;;18.07;38.93
12949;BME280;6539;49.476;8.484;2023-04-09T08:16:48;101362.03;;;18.53;37.95
12949;BME280;6539;49.476;8.484;2023-04-09T08:19:16;101365.94;;;19.00;37.17
12949;BME280;6539;49.476;8.484;2023-04-09T08:21:43;101362.91;;;18.95;36.54
12949;BME280;6539;49.476;8.484;2023-04-09T08:24:10;101368.66;;;19.45;35.90
12949;BME280;6539;49.476;8.484;2023-04-09T08:26:37;101369.47;;;19.58;35.26
12949;BME280;6539;49.476;8.484;2023-04-09T08:29:04;101362.34;;;19.57;35.63
12949;BME280;6539;49.476;8.484;2023-04-09T08:31:29;101368.16;;;20.01;34.82
12949;BME280;6539;49.476;8.484;2023-04-09T08:33:55;101372.28;;;20.34;34.37
12949;BME280;6539;49.476;8.484;2023-04-09T08:36:23;101376.88;;;20.75;33.64
12949;BME280;6539;49.476;8.484;2023-04-09T08:38:50;101376.00;;;21.12;32.68
12949;BME280;6539;49.476;8.484;2023-04-09T08:41:23;101381.06;;;21.04;32.77
12949;BME280;6539;49.476;8.484;2023-04-09T08:43:52;101380.78;;;21.33;32.61
12949;BME280;6539;49.476;8.484;2023-04-09T08:46:23;101384.06;;;21.32;32.43
12949;BME280;6539;49.476;8.484;2023-04-09T08:48:50;101382.75;;;21.67;32.27
12949;BME280;6539;49.476;8.484;2023-04-09T08:51:21;101379.94;;;21.97;31.64
12949;BME280;6539;49.476;8.484;2023-04-09T08:53:55;101371.31;;;22.14;30.98
12949;BME280;6539;49.476;8.484;2023-04-09T08:56:21;101381.09;;;22.09;31.23
12949;BME280;6539;49.476;8.484;2023-04-09T08:58:48;101380.72;;;22.38;31.00
12949;BME280;6539;49.476;8.484;2023-04-09T09:01:30;101378.88;;;22.44;30.16
12949;BME280;6539;49.476;8.484;2023-04-09T09:04:02;101380.50;;;21.83;31.28
12949;BME280;6539;49.476;8.484;2023-04-09T09:06:35;101386.78;;;21.44;32.13
12949;BME280;6539;49.476;8.484;2023-04-09T09:09:09;101393.88;;;21.14;32.53
12949;BME280;6539;49.476;8.484;2023-04-09T09:14:11;101395.91;;;21.01;32.54
12949;BME280;6539;49.476;8.484;2023-04-09T09:17:02;101385.94;;;21.13;32.65
12949;BME280;6539;49.476;8.484;2023-04-09T09:19:32;101388.59;;;20.82;32.31
12949;BME280;6539;49.476;8.484;2023-04-09T09:22:09;101399.41;;;20.33;33.02
12949;BME280;6539;49.476;8.484;2023-04-09T09:24:51;101377.63;;;19.91;33.13
12949;BME280;6539;49.476;8.484;2023-04-09T09:27:34;101384.34;;;19.39;34.01
12949;BME280;6539;49.476;8.484;2023-04-09T09:30:07;101387.97;;;18.95;34.11
12949;BME280;6539;49.476;8.484;2023-04-09T09:32:35;101379.41;;;19.02;34.35
12949;BME280;6539;49.476;8.484;2023-04-09T09:35:06;101385.66;;;19.06;33.86
12949;BME280;6539;49.476;8.484;2023-04-09T09:37:36;101382.03;;;19.50;33.42
12949;BME280;6539;49.476;8.484;2023-04-09T09:40:05;101380.53;;;19.33;33.36
12949;BME280;6539;49.476;8.484;2023-04-09T09:42:34;101372.81;;;19.66;33.29
12949;BME280;6539;49.476;8.484;2023-04-09T09:45:04;101380.75;;;19.80;33.29
12949;BME280;6539;49.476;8.484;2023-04-09T09:47:42;101367.19;;;19.95;32.71
12949;BME280;6539;49.476;8.484;2023-04-09T09:50:09;101370.16;;;20.38;32.53
12949;BME280;6539;49.476;8.484;2023-04-09T09:52:38;101371.84;;;20.82;30.24
12949;BME280;6539;49.476;8.484;2023-04-09T09:55:08;101363.72;;;20.75;29.41
12949;BME280;6539;49.476;8.484;2023-04-09T09:57:41;101373.31;;;20.40;29.92
12949;BME280;6539;49.476;8.484;2023-04-09T10:00:13;101371.38;;;19.87;30.85
12949;BME280;6539;49.476;8.484;2023-04-09T10:02:53;101363.41;;;19.47;30.97
12949;BME280;6539;49.476;8.484;2023-04-09T10:05:22;101370.22;;;19.18;31.76
12949;BME280;6539;49.476;8.484;2023-04-09T10:08:00;101364.16;;;18.78;33.47
12949;BME280;6539;49.476;8.484;2023-04-09T10:10:28;101358.78;;;18.39;34.16
12949;BME280;6539;49.476;8.484;2023-04-09T10:12:56;101364.19;;;18.13;34.95
12949;BME280;6539;49.476;8.484;2023-04-09T10:15:26;101354.69;;;17.95;35.47
12949;BME280;6539;49.476;8.484;2023-04-09T10:17:56;101348.78;;;17.93;35.68
12949;BME280;6539;49.476;8.484;2023-04-09T10:20:35;101359.00;;;17.80;35.21
12949;BME280;6539;49.476;8.484;2023-04-09T10:23:17;101350.75;;;17.76;36.07
12949;BME280;6539;49.476;8.484;2023-04-09T10:25:44;101355.66;;;17.69;36.36
12949;BME280;6539;49.476;8.484;2023-04-09T10:28:18;101356.59;;;17.62;36.01
12949;BME280;6539;49.476;8.484;2023-04-09T10:30:44;101353.31;;;17.51;36.03
12949;BME280;6539;49.476;8.484;2023-04-09T10:33:14;101355.06;;;17.41;35.83
12949;BME280;6539;49.476;8.484;2023-04-09T10:35:42;101351.84;;;17.23;35.78
12949;BME280;6539;49.476;8.484;2023-04-09T10:38:15;101343.75;;;17.13;36.11
12949;BME280;6539;49.476;8.484;2023-04-09T10:40:47;101346.81;;;17.18;36.46
12949;BME280;6539;49.476;8.484;2023-04-09T10:43:17;101346.38;;;17.20;36.40
12949;BME280;6539;49.476;8.484;2023-04-09T10:45:47;101343.25;;;17.18;36.06
12949;BME280;6539;49.476;8.484;2023-04-09T10:48:21;101340.38;;;17.21;36.50
12949;BME280;6539;49.476;8.484;2023-04-09T10:50:50;101333.97;;;17.44;36.26
12949;BME280;6539;49.476;8.484;2023-04-09T10:53:26;101333.88;;;17.51;36.40
12949;BME280;6539;49.476;8.484;2023-04-09T10:55:53;101333.78;;;17.55;35.76
12949;BME280;6539;49.476;8.484;2023-04-09T10:58:19;101333.44;;;17.52;35.63
12949;BME280;6539;49.476;8.484;2023-04-09T11:00:49;101334.47;;;17.39;35.74
12949;BME280;6539;49.476;8.484;2023-04-09T11:03:28;101333.06;;;17.31;35.67
12949;BME280;6539;49.476;8.484;2023-04-09T11:06:01;101323.38;;;17.39;36.12
12949;BME280;6539;49.476;8.484;2023-04-09T11:08:31;101328.84;;;17.62;36.17
12949;BME280;6539;49.476;8.484;2023-04-09T11:11:01;101326.09;;;17.78;35.69
12949;BME280;6539;49.476;8.484;2023-04-09T11:13:28;101330.38;;;17.83;35.44
12949;BME280;6539;49.476;8.484;2023-04-09T11:15:56;101331.91;;;17.84;34.38
12949;BME280;6539;49.476;8.484;2023-04-09T11:18:29;101323.66;;;17.80;34.07
12949;BME280;6539;49.476;8.484;2023-04-09T11:21:00;101322.09;;;17.79;33.92
12949;BME280;6539;49.476;8.484;2023-04-09T11:23:28;101320.78;;;17.68;34.04
12949;BME280;6539;49.476;8.484;2023-04-09T11:25:54;101319.31;;;17.43;33.68
12949;BME280;6539;49.476;8.484;2023-04-09T11:28:22;101314.34;;;17.35;33.93
12949;BME280;6539;49.476;8.484;2023-04-09T11:30:50;101316.47;;;17.27;33.75
12949;BME280;6539;49.476;8.484;2023-04-09T11:33:16;101317.13;;;17.15;34.16
12949;BME280;6539;49.476;8.484;2023-04-09T11:35:45;101309.72;;;17.09;34.48
12949;BME280;6539;49.476;8.484;2023-04-09T11:38:13;101311.53;;;16.99;34.64
12949;BME280;6539;49.476;8.484;2023-04-09T11:40:43;101312.44;;;16.93;34.82
12949;BME280;6539;49.476;8.484;2023-04-09T11:43:16;101306.47;;;16.94;35.11
12949;BME280;6539;49.476;8.484;2023-04-09T11:45:45;101304.97;;;16.90;35.03
12949;BME280;6539;49.476;8.484;2023-04-09T11:48:15;101309.81;;;16.86;35.09
12949;BME280;6539;49.476;8.484;2023-04-09T11:50:45;101307.59;;;16.97;34.81
12949;BME280;6539;49.476;8.484;2023-04-09T11:53:22;101307.66;;;16.93;34.53
12949;BME280;6539;49.476;8.484;2023-04-09T11:55:51;101314.00;;;16.94;34.09
12949;BME280;6539;49.476;8.484;2023-04-09T11:58:19;101307.09;;;17.02;34.00
12949;BME280;6539;49.476;8.484;2023-04-09T12:00:46;101311.22;;;17.13;33.97
12949;BME280;6539;49.476;8.484;2023-04-09T12:03:12;101315.84;;;17.20;33.83
12949;BME280;6539;49.476;8.484;2023-04-09T12:05:45;101314.47;;;17.28;33.96
12949;BME280;6539;49.476;8.484;2023-04-09T12:08:22;101312.22;;;17.23;33.69
12949;BME280;6539;49.476;8.484;2023-04-09T12:10:48;101312.63;;;17.21;33.60
12949;BME280;6539;49.476;8.484;2023-04-09T12:13:16;101308.66;;;17.22;34.16
12949;BME280;6539;49.476;8.484;2023-04-09T12:15:42;101310.56;;;17.25;33.75
12949;BME280;6539;49.476;8.484;2023-04-09T12:18:13;101323.03;;;17.37;33.44
12949;BME280;6539;49.476;8.484;2023-04-09T12:20:40;101316.28;;;17.18;32.70
12949;BME280;6539;49.476;8.484;2023-04-09T12:23:12;101310.50;;;17.29;30.77
12949;BME280;6539;49.476;8.484;2023-04-09T12:25:42;101306.94;;;17.09;31.00
12949;BME280;6539;49.476;8.484;2023-04-09T12:28:12;101308.66;;;17.03;31.05
12949;BME280;6539;49.476;8.484;2023-04-09T12:30:43;101303.91;;;17.03;31.11
12949;BME280;6539;49.476;8.484;2023-04-09T12:33:09;101306.13;;;17.12;31.10
12949;BME280;6539;49.476;8.484;2023-04-09T12:35:37;101298.63;;;17.09;30.75
12949;BME280;6539;49.476;8.484;2023-04-09T12:38:03;101297.56;;;17.03;31.13
12949;BME280;6539;49.476;8.484;2023-04-09T12:40:29;101294.50;;;16.97;30.90
12949;BME280;6539;49.476;8.484;2023-04-09T12:43:00;101287.66;;;17.02;30.90
12949;BME280;6539;49.476;8.484;2023-04-09T12:45:29;101292.38;;;17.05;30.94
12949;BME280;6539;49.476;8.484;2023-04-09T12:47:57;101292.72;;;17.07;31.01
12949;BME280;6539;49.476;8.484;2023-04-09T12:50:26;101287.53;;;17.09;30.89
12949;BME280;6539;49.476;8.484;2023-04-09T12:52:52;101282.75;;;17.29;31.32
12949;BME280;6539;49.476;8.484;2023-04-09T12:55:18;101281.31;;;17.76;30.19
12949;BME280;6539;49.476;8.484;2023-04-09T12:57:44;101274.28;;;18.04;29.42
12949;BME280;6539;49.476;8.484;2023-04-09T13:00:14;101272.88;;;18.12;29.11
12949;BME280;6539;49.476;8.484;2023-04-09T13:02:40;101271.69;;;18.13;29.06
12949;BME280;6539;49.476;8.484;2023-04-09T13:05:06;101263.97;;;18.33;28.98
12949;BME280;6539;49.476;8.484;2023-04-09T13:07:32;101266.31;;;18.51;28.10
12949;BME280;6539;49.476;8.484;2023-04-09T13:09:57;101252.63;;;18.72;27.95
12949;BME280;6539;49.476;8.484;2023-04-09T13:12:23;101264.00;;;18.78;27.89
12949;BME280;6539;49.476;8.484;2023-04-09T13:14:52;101250.22;;;18.87;27.79
12949;BME280;6539;49.476;8.484;2023-04-09T13:17:18;101250.44;;;18.80;27.73
12949;BME280;6539;49.476;8.484;2023-04-09T13:19:46;101250.94;;;19.03;28.26
12949;BME280;6539;49.476;8.484;2023-04-09T13:22:16;101252.28;;;19.24;27.64